Time;durP1;ratioP1;P1;durP2;ratioP2;P2;SDS_P1;SDS_P2;PMS_P1;PMS_P2;Temp;Humidity;BMP_temperature;BMP_pressure;BME280_temperature;BME280_humidity;BME280_pressure;Samples;Min_cycle;Max_cycle;Signal;HPM_P1;HPM_P2
2021/12/15 00:02:21;;;;;;;58.60;23.52;;;;;;;-0.37;66.69;100497.19;5051958;28;20115;-51
2021/12/15 00:04:52;;;;;;;56.10;22.92;;;;;;;-0.32;66.89;100497.09;5050137;28;20033;-54
2021/12/15 00:07:23;;;;;;;55.13;23.23;;;;;;;-0.54;66.69;100452.88;5051421;28;20492;-50
2021/12/15 00:09:50;;;;;;;63.08;23.98;;;;;;;-0.37;66.24;100486.66;5051874;28;20032;-53
2021/12/15 00:12:16;;;;;;;52.67;23.75;;;;;;;-0.34;66.15;100480.47;5051603;28;20032;-50
2021/12/15 00:14:43;;;;;;;49.90;23.13;;;;;;;-0.38;66.53;100477.06;5049979;28;20025;-54
2021/12/15 00:17:09;;;;;;;53.17;22.83;;;;;;;-0.61;66.40;100459.22;5051580;28;20033;-53
2021/12/15 00:19:37;;;;;;;58.17;23.40;;;;;;;-0.68;66.58;100431.34;5052079;28;20025;-52
2021/12/15 00:22:03;;;;;;;49.83;22.90;;;;;;;-0.41;67.30;100473.66;5050494;28;20029;-50
2021/12/15 00:24:29;;;;;;;48.85;22.50;;;;;;;-0.42;66.94;100480.66;5050175;28;20040;-49
2021/12/15 00:26:55;;;;;;;52.13;22.55;;;;;;;-0.38;66.53;100478.84;5051244;28;20053;-49
2021/12/15 00:29:22;;;;;;;51.33;22.13;;;;;;;-0.50;66.92;100449.28;5051300;28;20041;-48
2021/12/15 00:31:48;;;;;;;53.22;20.90;;;;;;;-0.60;66.51;100421.50;5051188;28;20083;-48
2021/12/15 00:34:15;;;;;;;49.40;20.95;;;;;;;-0.40;66.54;100455.19;5051521;28;20409;-47
2021/12/15 00:36:44;;;;;;;48.25;20.80;;;;;;;-0.37;66.83;100454.25;5049835;28;20025;-48
2021/12/15 00:39:13;;;;;;;53.55;22.45;;;;;;;-0.32;66.73;100455.00;5050074;28;20029;-50
2021/12/15 00:41:40;;;;;;;48.00;20.20;;;;;;;-0.40;66.32;100444.66;5051066;28;20427;-46
2021/12/15 00:44:07;;;;;;;48.13;20.92;;;;;;;-0.40;66.11;100446.44;5051774;28;20033;-47
2021/12/15 00:46:33;;;;;;;48.72;22.25;;;;;;;-0.35;66.46;100457.69;5049888;28;20024;-52
2021/12/15 00:48:59;;;;;;;48.53;22.05;;;;;;;-0.34;66.34;100448.91;5051250;28;20044;-50
2021/12/15 00:51:25;;;;;;;53.13;22.98;;;;;;;-0.29;66.60;100462.81;5050039;28;20052;-50
2021/12/15 00:53:51;;;;;;;51.28;22.52;;;;;;;-0.31;66.65;100452.34;5051305;28;20033;-51
2021/12/15 00:56:17;;;;;;;54.13;22.45;;;;;;;-0.24;66.14;100454.81;5049657;28;20473;-49
2021/12/15 00:58:43;;;;;;;44.08;19.13;;;;;;;-0.25;66.27;100460.97;5051044;28;20037;-53
2021/12/15 01:01:09;;;;;;;49.17;20.88;;;;;;;-0.51;66.66;100421.25;5050937;28;20036;-52
2021/12/15 01:03:35;;;;;;;48.13;20.98;;;;;;;-0.33;66.67;100438.34;5047995;28;20104;-48
2021/12/15 01:06:07;;;;;;;51.47;20.50;;;;;;;-0.28;66.21;100440.84;5051033;28;20044;-50
2021/12/15 01:08:38;;;;;;;44.80;18.77;;;;;;;-0.53;66.04;100409.91;5050835;28;20112;-53
2021/12/15 01:21:54;;;;;;;44.20;18.33;;;;;;;-0.39;66.18;100438.50;5050828;28;20095;-50
2021/12/15 01:24:22;;;;;;;39.50;17.73;;;;;;;-0.46;66.17;100422.03;5052763;28;20067;-49
2021/12/15 01:26:47;;;;;;;43.42;18.17;;;;;;;-0.39;66.60;100424.47;5054953;28;20136;-54
2021/12/15 01:29:13;;;;;;;49.88;20.67;;;;;;;-0.35;66.55;100434.03;5054880;28;20124;-53
2021/12/15 01:31:39;;;;;;;49.17;20.00;;;;;;;-0.34;66.55;100425.22;5055082;28;20048;-55
2021/12/15 01:34:04;;;;;;;53.42;21.55;;;;;;;-0.61;66.88;100380.31;5054701;28;20083;-50
2021/12/15 01:36:31;;;;;;;47.85;21.05;;;;;;;-0.35;66.60;100418.22;5052766;28;20083;-51
2021/12/15 01:38:56;;;;;;;53.03;21.23;;;;;;;-0.38;66.83;100413.06;5054550;28;20064;-52
2021/12/15 01:41:23;;;;;;;43.60;18.70;;;;;;;-0.33;67.05;100424.31;5054378;28;20077;-51
2021/12/15 01:46:57;;;;;;;43.92;18.75;;;;;;;-0.32;67.06;100412.88;5052106;28;20025;-52
2021/12/15 01:49:37;;;;;;;35.13;15.65;;;;;;;-0.26;66.79;100412.72;5054371;28;20116;-52
2021/12/15 01:52:19;;;;;;;37.35;15.88;;;;;;;-0.25;66.92;100408.34;5054240;28;20041;-53
2021/12/15 01:54:49;;;;;;;36.38;14.65;;;;;;;-0.30;66.77;100411.09;5054291;28;20445;-53
2021/12/15 01:57:16;;;;;;;39.38;15.35;;;;;;;-0.33;66.58;100412.03;5052387;28;20406;-54
2021/12/15 01:59:44;;;;;;;36.53;15.90;;;;;;;-0.28;66.57;100418.94;5054334;28;20025;-53
2021/12/15 02:02:10;;;;;;;33.55;15.27;;;;;;;-0.30;66.63;100416.34;5054389;28;20489;-50
2021/12/15 02:04:36;;;;;;;35.85;14.95;;;;;;;-0.28;66.63;100406.63;5054155;28;20036;-52
2021/12/15 02:07:07;;;;;;;36.00;15.45;;;;;;;-0.23;66.23;100407.41;5052381;28;20037;-51
2021/12/15 02:10:19;;;;;;;38.65;14.98;;;;;;;-0.28;66.18;100413.69;5054006;28;20863;-54
2021/12/15 02:12:27;;;;;;;37.22;16.02;;;;;;;-0.30;66.60;100405.81;5049593;28;20051;-52
2021/12/15 02:14:54;;;;;;;33.40;15.05;;;;;;;-0.34;66.50;100405.06;5054245;28;20029;-56
2021/12/15 02:17:20;;;;;;;36.13;14.45;;;;;;;-0.30;66.29;100417.22;5052012;28;20428;-54
2021/12/15 02:19:46;;;;;;;29.92;13.82;;;;;;;-0.46;66.32;100394.84;5053826;28;20091;-51
2021/12/15 02:22:12;;;;;;;32.08;15.05;;;;;;;-0.34;66.08;100414.69;5054109;28;20033;-54
2021/12/15 02:24:39;;;;;;;38.38;16.73;;;;;;;-0.34;66.22;100414.69;5053927;28;20032;-51
2021/12/15 02:27:06;;;;;;;38.55;16.73;;;;;;;-0.38;66.67;100402.53;5051419;28;20045;-52
2021/12/15 02:29:38;;;;;;;41.15;16.58;;;;;;;-0.31;66.35;100409.34;5053682;28;20064;-50
2021/12/15 02:37:20;;;;;;;26.35;11.60;;;;;;;-0.29;65.69;100402.28;5053389;28;20097;-50
2021/12/15 02:39:48;;;;;;;26.02;11.52;;;;;;;-0.35;65.62;100402.44;5052570;28;20095;-51
2021/12/15 02:42:15;;;;;;;31.33;13.98;;;;;;;-0.37;66.27;100404.25;5053679;28;20037;-51
2021/12/15 02:44:43;;;;;;;31.55;13.85;;;;;;;-0.38;66.07;100407.78;5053362;28;20457;-50
2021/12/15 02:47:16;;;;;;;33.28;13.45;;;;;;;-0.36;66.01;100391.06;5053484;28;20032;-50
2021/12/15 02:49:42;;;;;;;29.23;12.50;;;;;;;-0.39;66.30;100401.66;5052072;28;20488;-50
2021/12/15 02:52:08;;;;;;;30.27;12.93;;;;;;;-0.41;66.17;100399.97;5053004;28;20393;-52
2021/12/15 02:54:35;;;;;;;27.75;12.65;;;;;;;-0.65;65.80;100368.16;5052905;28;20029;-53
2021/12/15 02:57:06;;;;;;;25.38;11.52;;;;;;;-0.42;66.30;100416.69;5052852;28;20024;-52
2021/12/15 02:59:44;;;;;;;28.13;11.55;;;;;;;-0.39;66.03;100412.19;5051800;28;20036;-52
2021/12/15 03:04:50;;;;;;;26.20;12.20;;;;;;;-0.35;65.85;100407.72;5053250;28;20389;-51
2021/12/15 03:07:31;;;;;;;28.95;12.15;;;;;;;-0.39;65.33;100406.06;5052771;28;20032;-53
2021/12/15 03:15:34;;;;;;;29.35;12.57;;;;;;;-0.38;66.31;100399.91;5032983;28;20038;-53
2021/12/15 03:18:06;;;;;;;33.63;14.75;;;;;;;-0.32;65.91;100407.63;5033016;28;20033;-48
2021/12/15 03:20:55;;;;;;;38.60;15.18;;;;;;;-0.37;66.41;100404.25;5032888;28;20052;-52
2021/12/15 03:23:38;;;;;;;39.63;15.80;;;;;;;-0.33;66.19;100400.63;5027389;28;20485;-54
2021/12/15 03:26:04;;;;;;;43.30;16.60;;;;;;;-0.68;66.25;100350.66;5052296;28;20099;-51
2021/12/15 03:35:04;;;;;;;40.83;16.10;;;;;;;-0.49;66.88;100394.91;5064598;28;20442;-49
2021/12/15 03:37:19;;;;;;;40.17;15.77;;;;;;;-0.61;66.90;100390.84;5029263;28;20060;-53
2021/12/15 03:39:47;;;;;;;41.55;16.17;;;;;;;-0.58;66.72;100396.00;5032635;28;20029;-53
2021/12/15 03:42:17;;;;;;;42.05;15.98;;;;;;;-0.57;66.84;100386.38;5032518;28;20064;-54
2021/12/15 03:44:45;;;;;;;41.72;16.27;;;;;;;-0.60;67.27;100390.81;5034099;28;20380;-54
2021/12/15 03:47:17;;;;;;;39.90;15.40;;;;;;;-0.54;67.44;100392.41;5051811;28;20056;-54
2021/12/15 03:49:43;;;;;;;44.03;16.77;;;;;;;-0.53;67.23;100388.84;5052080;28;20029;-54
2021/12/15 03:52:11;;;;;;;37.17;14.88;;;;;;;-0.70;67.11;100352.47;5050446;28;20374;-53
2021/12/15 03:54:37;;;;;;;42.55;15.45;;;;;;;-0.58;66.88;100382.84;5051983;28;20079;-54
2021/12/15 03:57:03;;;;;;;39.40;15.18;;;;;;;-0.56;67.04;100382.84;5050113;28;20033;-50
2021/12/15 03:59:31;;;;;;;36.90;15.40;;;;;;;-0.57;67.21;100381.09;5052044;28;20147;-53
2021/12/15 04:01:57;;;;;;;32.03;14.73;;;;;;;-0.53;66.90;100382.75;5052131;28;20036;-52
2021/12/15 04:04:23;;;;;;;38.53;14.43;;;;;;;-0.54;66.87;100381.88;5051959;28;20024;-52
2021/12/15 04:06:49;;;;;;;39.95;14.23;;;;;;;-0.54;66.36;100387.13;5050349;28;20048;-53
2021/12/15 04:09:16;;;;;;;32.28;13.13;;;;;;;-0.56;66.83;100388.94;5052574;28;20122;-54
2021/12/15 04:11:43;;;;;;;31.52;13.07;;;;;;;-0.59;67.10;100386.41;5051849;28;20036;-50
2021/12/15 04:14:19;;;;;;;30.65;12.75;;;;;;;-0.62;67.07;100386.47;5051566;28;20036;-54
2021/12/15 04:16:57;;;;;;;;;;;;;;;-0.37;67.11;100372.69;5049584;28;20112;-48
2021/12/15 04:19:23;;;;;;;29.55;12.65;;;;;;;-0.52;66.50;100374.81;5050277;28;20335;-53
2021/12/15 04:21:50;;;;;;;32.20;12.93;;;;;;;-0.54;67.09;100376.59;5051671;28;20033;-55
2021/12/15 04:24:17;;;;;;;30.15;12.75;;;;;;;-0.53;66.65;100378.34;5050375;28;20059;-51
2021/12/15 04:26:45;;;;;;;31.30;12.93;;;;;;;-0.51;67.34;100380.94;5049861;28;20037;-49
2021/12/15 04:29:11;;;;;;;33.08;12.90;;;;;;;-0.51;66.91;100365.16;5050963;28;20045;-51
2021/12/15 04:31:49;;;;;;;34.55;13.30;;;;;;;-0.45;67.21;100360.59;5051017;28;20474;-52
2021/12/15 04:34:15;;;;;;;31.08;13.23;;;;;;;-0.39;67.00;100361.34;5051384;28;20037;-53
2021/12/15 04:36:44;;;;;;;35.00;13.23;;;;;;;-0.39;66.86;100363.97;5051223;28;20033;-55
2021/12/15 04:39:14;;;;;;;34.40;13.15;;;;;;;-0.42;67.20;100356.16;5049425;28;20104;-54
2021/12/15 04:41:44;;;;;;;34.00;13.63;;;;;;;-0.41;67.36;100352.63;5051277;28;20416;-52
2021/12/15 04:44:11;;;;;;;33.63;13.63;;;;;;;-0.63;66.95;100314.59;5051348;28;20069;-53
2021/12/15 04:46:44;;;;;;;29.38;12.10;;;;;;;-0.35;67.32;100355.97;5051130;28;20064;-53
2021/12/15 04:49:12;;;;;;;35.63;13.25;;;;;;;-0.38;66.87;100345.50;5049249;28;20385;-50
2021/12/15 04:51:39;;;;;;;26.25;11.32;;;;;;;-0.45;67.13;100339.56;5049771;28;20033;-53
2021/12/15 04:54:06;;;;;;;27.77;11.43;;;;;;;-0.41;67.56;100339.47;5049636;28;20041;-53
2021/12/15 04:56:32;;;;;;;25.73;11.02;;;;;;;-0.80;66.85;100270.34;5051228;28;20071;-55
2021/12/15 04:58:58;;;;;;;26.77;10.70;;;;;;;-0.36;67.29;100343.72;5029322;28;20041;-55
2021/12/15 05:01:24;;;;;;;30.45;11.43;;;;;;;-0.36;67.32;100353.38;5031246;28;20029;-53
2021/12/15 05:03:50;;;;;;;26.60;10.85;;;;;;;-0.35;67.22;100355.09;5031211;28;20104;-50
2021/12/15 05:06:16;;;;;;;25.60;10.38;;;;;;;-0.36;67.11;100356.00;5031235;28;20025;-50
2021/12/15 05:08:42;;;;;;;27.25;11.07;;;;;;;-0.36;66.95;100351.59;5031713;28;20049;-52
2021/12/15 05:11:09;;;;;;;28.48;10.88;;;;;;;-0.37;66.90;100344.59;5030679;28;20394;-54
2021/12/15 05:13:36;;;;;;;28.67;11.38;;;;;;;-0.37;67.29;100347.22;5030971;28;20120;-52
2021/12/15 05:16:04;;;;;;;26.80;11.13;;;;;;;-0.37;67.21;100351.63;5031064;28;20038;-53
2021/12/15 05:18:30;;;;;;;23.15;9.75;;;;;;;-0.36;67.45;100345.47;5031290;28;20052;-51
2021/12/15 05:20:58;;;;;;;21.45;10.10;;;;;;;-0.40;66.97;100333.31;5029523;28;20030;-59
2021/12/15 05:23:31;;;;;;;22.55;10.23;;;;;;;-0.31;67.13;100346.19;5013374;28;20410;-50
2021/12/15 05:25:59;;;;;;;24.30;10.63;;;;;;;-0.29;67.08;100352.28;5030741;28;20040;-56
2021/12/15 05:28:25;;;;;;;22.08;9.05;;;;;;;-0.28;67.33;100356.63;5031170;28;20100;-53
2021/12/15 05:30:51;;;;;;;18.92;8.75;;;;;;;-0.28;67.27;100367.16;5030929;28;20021;-54
2021/12/15 05:33:17;;;;;;;19.38;9.23;;;;;;;-0.27;67.02;100347.84;5030671;28;20116;-56
2021/12/15 05:35:44;;;;;;;22.00;9.57;;;;;;;-0.21;67.39;100352.06;5030595;28;20033;-51
2021/12/15 05:38:10;;;;;;;21.13;9.07;;;;;;;-0.23;66.98;100360.03;5030514;28;20111;-49
2021/12/15 05:40:37;;;;;;;16.58;7.60;;;;;;;-0.27;66.82;100353.09;5031465;28;20494;-52
2021/12/15 05:43:05;;;;;;;22.65;8.85;;;;;;;-0.22;67.47;100348.59;5030884;28;20033;-48
2021/12/15 05:45:34;;;;;;;20.58;9.02;;;;;;;-0.26;67.01;100339.03;5029414;28;20052;-49
2021/12/15 05:48:00;;;;;;;21.27;8.77;;;;;;;-0.26;67.00;100339.03;5030245;28;20033;-54
2021/12/15 05:50:29;;;;;;;21.35;8.75;;;;;;;-0.24;67.30;100346.91;5040411;28;20029;-53
2021/12/15 05:52:55;;;;;;;17.73;8.27;;;;;;;-0.23;66.97;100346.88;5050652;28;20114;-51
2021/12/15 05:55:21;;;;;;;18.67;8.57;;;;;;;-0.27;67.37;100337.31;5050442;28;20408;-53
2021/12/15 05:57:47;;;;;;;18.13;7.85;;;;;;;-0.30;67.37;100333.00;5046969;28;20052;-53
2021/12/15 06:00:17;;;;;;;19.67;8.75;;;;;;;-0.20;67.24;100344.16;5039209;28;20029;-53
2021/12/15 06:02:43;;;;;;;17.40;7.93;;;;;;;-0.18;67.16;100341.47;5038237;28;20488;-53
2021/12/15 06:05:10;;;;;;;16.25;8.63;;;;;;;-0.14;67.12;100358.88;5039292;28;20049;-53
2021/12/15 06:07:37;;;;;;;17.30;9.05;;;;;;;-0.15;66.76;100358.03;5038984;28;20088;-51
2021/12/15 06:10:09;;;;;;;18.83;9.02;;;;;;;-0.12;67.01;100357.09;5040572;28;20025;-53
2021/12/15 06:12:34;;;;;;;18.80;8.00;;;;;;;-0.23;66.74;100340.72;5042071;28;20026;-54
2021/12/15 06:15:02;;;;;;;13.57;6.93;;;;;;;-0.16;67.10;100366.84;5041940;28;20095;-53
2021/12/15 06:17:29;;;;;;;12.73;6.97;;;;;;;-0.41;66.56;100308.75;5034576;28;20533;-56
2021/12/15 06:19:57;;;;;;;15.52;7.70;;;;;;;-0.31;66.70;100322.53;5033787;28;20052;-51
2021/12/15 06:22:28;;;;;;;14.88;6.93;;;;;;;-0.13;66.43;100360.63;5044973;28;20037;-54
2021/12/15 06:24:55;;;;;;;12.55;6.60;;;;;;;-0.11;66.88;100352.69;5052531;28;20381;-55
2021/12/15 06:27:23;;;;;;;12.10;6.57;;;;;;;-0.10;66.13;100349.16;5041458;28;20128;-55
2021/12/15 06:29:51;;;;;;;15.05;6.80;;;;;;;-0.37;66.79;100299.03;5033545;28;20130;-61
2021/12/15 06:32:18;;;;;;;14.75;7.18;;;;;;;-0.06;66.67;100349.03;5033843;28;20061;-52
2021/12/15 06:34:45;;;;;;;14.05;6.18;;;;;;;-0.01;66.57;100335.72;5031537;28;20537;-48
2021/12/15 06:37:13;;;;;;;14.02;6.97;;;;;;;0.05;66.61;100343.47;5030279;28;20110;-52
2021/12/15 06:39:39;;;;;;;14.85;7.28;;;;;;;-0.12;66.49;100301.84;5029598;28;20037;-56
2021/12/15 06:42:06;;;;;;;15.13;8.02;;;;;;;0.12;66.65;100344.13;5032185;28;20700;-53
2021/12/15 06:44:33;;;;;;;14.48;7.13;;;;;;;0.08;66.67;100330.22;5050751;28;20060;-54
2021/12/15 07:00:58;;;;;;;13.60;6.82;;;;;;;0.20;66.35;100338.63;5033501;28;20037;-52
2021/12/15 07:03:25;;;;;;;15.18;6.75;;;;;;;0.14;65.75;100343.19;5037807;28;20029;-52
2021/12/15 07:05:52;;;;;;;12.98;7.20;;;;;;;0.09;66.07;100345.09;5033009;28;20037;-49
2021/12/15 07:08:20;;;;;;;13.65;7.18;;;;;;;0.05;65.89;100338.19;5033291;28;20549;-55
2021/12/15 07:10:50;;;;;;;14.45;7.45;;;;;;;0.08;66.58;100353.91;5033221;28;20021;-54
2021/12/15 07:13:17;;;;;;;15.07;8.05;;;;;;;0.08;66.07;100346.00;5032437;28;20116;-54
2021/12/15 07:15:46;;;;;;;15.27;6.38;;;;;;;0.09;66.50;100350.34;5033462;28;20029;-53
2021/12/15 07:18:14;;;;;;;14.93;6.78;;;;;;;0.12;66.24;100334.47;5032598;28;20041;-53
2021/12/15 07:20:46;;;;;;;14.02;6.75;;;;;;;0.14;65.86;100343.19;5032009;28;20037;-53
2021/12/15 07:23:19;;;;;;;13.52;6.95;;;;;;;0.19;66.30;100342.19;5050464;28;20112;-54
2021/12/15 07:25:46;;;;;;;14.93;7.35;;;;;;;0.21;66.69;100343.00;5037542;28;20557;-58
2021/12/15 07:28:14;;;;;;;12.80;7.25;;;;;;;0.19;65.96;100355.34;5032447;28;20080;-56
2021/12/15 07:30:41;;;;;;;16.20;7.20;;;;;;;0.18;66.29;100348.34;5032590;28;20041;-51
2021/12/15 07:33:09;;;;;;;13.07;6.70;;;;;;;0.20;66.14;100346.53;5032216;28;20068;-55
2021/12/15 07:35:36;;;;;;;12.23;6.80;;;;;;;0.14;66.35;100337.91;5032988;28;20022;-52
2021/12/15 07:38:05;;;;;;;12.50;6.50;;;;;;;0.25;65.86;100356.03;5032002;28;20045;-54
2021/12/15 07:40:31;;;;;;;13.00;6.47;;;;;;;0.27;65.74;100359.50;5031688;28;20496;-54
2021/12/15 07:43:08;;;;;;;12.13;6.00;;;;;;;0.25;65.65;100344.66;5032080;28;20033;-55
2021/12/15 07:45:43;;;;;;;9.25;5.63;;;;;;;0.26;65.89;100357.75;5033156;28;20025;-52
2021/12/15 07:48:11;;;;;;;12.55;6.20;;;;;;;0.26;65.68;100356.91;5031433;28;20035;-53
2021/12/15 07:50:38;;;;;;;13.65;5.70;;;;;;;0.25;65.62;100358.69;5031798;28;20052;-52
2021/12/15 07:53:05;;;;;;;13.73;5.97;;;;;;;0.27;65.85;100364.75;5039975;28;20043;-49
2021/12/15 07:55:32;;;;;;;10.80;6.63;;;;;;;0.31;65.61;100359.41;5061271;28;20094;-54
2021/12/15 07:57:58;;;;;;;14.38;6.38;;;;;;;0.24;65.55;100345.53;5032919;28;20048;-56
2021/12/15 08:00:24;;;;;;;13.23;6.60;;;;;;;0.31;65.57;100355.00;5031751;28;20029;-54
2021/12/15 08:02:51;;;;;;;9.73;6.03;;;;;;;0.33;65.65;100365.47;5030872;28;20108;-56
2021/12/15 08:05:17;;;;;;;11.25;6.22;;;;;;;0.37;65.34;100354.81;5040603;28;20029;-55
2021/12/15 08:07:43;;;;;;;10.23;6.60;;;;;;;0.40;65.52;100352.09;5031822;28;20032;-52
2021/12/15 08:10:11;;;;;;;12.18;7.10;;;;;;;0.43;65.39;100352.00;5039465;28;20029;-55
2021/12/15 08:12:38;;;;;;;10.88;6.60;;;;;;;0.47;65.33;100344.00;5030559;28;20033;-55
2021/12/15 08:15:07;;;;;;;10.80;6.68;;;;;;;0.48;65.31;100340.44;5031103;28;20025;-55
2021/12/15 08:17:33;;;;;;;13.05;6.70;;;;;;;0.54;65.05;100340.28;5031402;28;20057;-53
2021/12/15 08:19:59;;;;;;;10.02;6.47;;;;;;;0.63;64.43;100350.53;5034604;28;20059;-55
2021/12/15 08:22:25;;;;;;;14.80;6.65;;;;;;;0.65;64.46;100340.78;5050644;28;20075;-51
2021/12/15 08:24:50;;;;;;;11.57;6.35;;;;;;;0.75;64.07;100344.00;5050734;28;20476;-53
2021/12/15 08:27:16;;;;;;;11.63;6.20;;;;;;;0.81;64.17;100337.69;5040183;28;20439;-56
2021/12/15 08:29:42;;;;;;;11.07;6.10;;;;;;;0.80;63.95;100336.81;5036911;28;20478;-55
2021/12/15 08:32:08;;;;;;;10.45;6.05;;;;;;;0.73;63.95;100330.03;5027124;28;20075;-53
2021/12/15 08:34:34;;;;;;;11.45;6.85;;;;;;;0.85;63.94;100334.91;5028478;28;20112;-55
2021/12/15 08:36:59;;;;;;;12.40;6.85;;;;;;;0.80;64.09;100328.06;5040347;28;20086;-52
2021/12/15 08:39:25;;;;;;;11.57;6.53;;;;;;;0.85;63.92;100339.31;5048861;28;20044;-51
2021/12/15 08:41:51;;;;;;;14.13;7.13;;;;;;;0.86;63.75;100338.41;5047120;28;20029;-49
2021/12/15 08:44:17;;;;;;;15.55;6.95;;;;;;;0.94;64.43;100328.44;5049661;28;20037;-50
2021/12/15 08:46:45;;;;;;;13.35;7.43;;;;;;;1.04;63.86;100331.66;5050065;28;20029;-54
2021/12/15 08:49:16;;;;;;;15.65;7.80;;;;;;;1.00;63.62;100328.28;5037931;28;20030;-53
2021/12/15 08:51:43;;;;;;;12.63;7.38;;;;;;;0.96;64.45;100323.16;5035193;28;20484;-54
2021/12/15 08:54:14;;;;;;;16.17;8.10;;;;;;;1.00;64.03;100325.63;5050309;28;20380;-54
2021/12/15 08:56:41;;;;;;;16.88;8.10;;;;;;;1.00;63.98;100324.75;5050540;28;20044;-58
2021/12/15 08:59:07;;;;;;;17.20;8.80;;;;;;;0.98;63.73;100319.56;5048172;28;20384;-58
2021/12/15 09:02:26;;;;;;;18.70;8.48;;;;;;;1.12;64.10;100315.59;5034367;28;20033;-60
2021/12/15 09:04:51;;;;;;;15.52;8.00;;;;;;;0.95;63.78;100295.91;5039416;28;20033;-60
2021/12/15 09:07:17;;;;;;;15.95;8.48;;;;;;;1.00;63.49;100332.66;5047546;28;20029;-60
2021/12/15 09:09:43;;;;;;;17.83;8.63;;;;;;;0.91;63.77;100312.75;5043234;28;20029;-58
2021/12/15 09:12:09;;;;;;;20.25;9.77;;;;;;;0.88;63.91;100314.63;5029998;28;20440;-57
2021/12/15 09:14:36;;;;;;;19.70;9.38;;;;;;;0.82;63.99;100311.25;5032817;28;20121;-55
2021/12/15 09:17:03;;;;;;;20.38;9.82;;;;;;;0.86;64.60;100319.94;5050269;28;20033;-56
2021/12/15 09:19:30;;;;;;;23.48;10.23;;;;;;;0.84;64.40;100317.38;5050407;28;20144;-60
2021/12/15 09:21:57;;;;;;;17.58;9.77;;;;;;;0.86;64.28;100314.66;5043560;28;20033;-58
2021/12/15 09:24:24;;;;;;;20.73;9.70;;;;;;;0.86;64.42;100304.13;5028574;28;20490;-55
2021/12/15 09:26:50;;;;;;;21.00;10.23;;;;;;;0.84;64.54;100305.94;5031173;28;20129;-60
2021/12/15 09:29:16;;;;;;;22.80;10.50;;;;;;;0.83;64.43;100310.34;5030319;28;20557;-60
2021/12/15 09:31:43;;;;;;;22.05;10.00;;;;;;;0.64;64.48;100265.28;5030226;28;20116;-58
2021/12/15 09:34:11;;;;;;;21.20;10.02;;;;;;;0.88;64.62;100309.34;5029902;28;20088;-59
2021/12/15 09:36:37;;;;;;;19.70;9.38;;;;;;;0.84;64.53;100296.28;5031071;28;20133;-61
2021/12/15 09:39:11;;;;;;;22.13;10.45;;;;;;;0.90;64.26;100295.19;5030351;28;20037;-61
2021/12/15 09:41:37;;;;;;;24.05;10.88;;;;;;;0.94;64.33;100311.78;5012274;28;20048;-57
2021/12/15 09:44:08;;;;;;;22.70;10.20;;;;;;;0.86;64.65;100288.31;5031172;28;20065;-58
2021/12/15 09:46:52;;;;;;;24.95;11.65;;;;;;;0.97;65.17;100294.09;5035097;28;20036;-60
2021/12/15 10:01:53;;;;;;;22.45;10.70;;;;;;;0.86;64.27;100230.31;5034797;28;20036;-58
2021/12/15 10:03:15;;;;;;;25.63;11.05;;;;;;;1.05;64.51;100258.69;5033671;28;20021;-61
2021/12/15 10:19:34;;;;;;;24.90;11.43;;;;;;;1.26;64.83;100251.81;5034606;28;20072;-60
2021/12/15 10:22:00;;;;;;;25.27;12.10;;;;;;;1.20;65.03;100247.59;5033386;28;20049;-56
2021/12/15 10:24:45;;;;;;;25.65;11.50;;;;;;;1.28;65.31;100263.16;5051178;28;20056;-58
2021/12/15 10:27:12;;;;;;;;;;;;;;;1.55;64.79;100245.50;5053025;28;20193;-55
2021/12/15 10:30:01;;;;;;;29.58;11.63;;;;;;;1.50;64.66;100243.94;5053090;28;19921;-55
2021/12/15 10:32:32;;;;;;;24.80;11.70;;;;;;;1.47;64.84;100250.19;5051528;28;20040;-56
2021/12/15 10:35:33;;;;;;;27.27;12.30;;;;;;;1.58;65.12;100249.81;5031590;28;20041;-53
2021/12/15 10:38:28;;;;;;;26.23;11.75;;;;;;;1.53;64.74;100241.16;5031707;28;20112;-56
2021/12/15 10:41:08;;;;;;;26.33;11.57;;;;;;;1.53;64.49;100236.78;5033016;28;20381;-55
2021/12/15 10:43:37;;;;;;;24.35;12.20;;;;;;;1.49;64.73;100242.22;5037258;28;20036;-54
2021/12/15 10:46:07;;;;;;;24.35;12.18;;;;;;;1.47;65.07;100238.75;5052794;28;20432;-59
2021/12/15 10:48:46;;;;;;;24.25;11.23;;;;;;;1.52;65.06;100235.06;5052907;28;20033;-56
2021/12/15 10:51:44;;;;;;;24.80;11.82;;;;;;;1.54;64.71;100240.25;5051258;28;20032;-56
2021/12/15 10:54:46;;;;;;;23.90;11.07;;;;;;;1.57;64.70;100242.81;5049861;28;20040;-56
2021/12/15 10:57:19;;;;;;;21.42;10.43;;;;;;;1.57;64.39;100238.38;5050971;28;20143;-55
2021/12/15 10:59:54;;;;;;;22.45;11.05;;;;;;;1.28;64.26;100190.16;5033951;28;20076;-59
2021/12/15 11:02:24;;;;;;;24.98;11.50;;;;;;;1.56;64.58;100244.56;5030979;28;20030;-60
2021/12/15 11:05:02;;;;;;;20.75;10.63;;;;;;;1.58;64.02;100237.47;5036846;28;20033;-62
2021/12/15 11:07:41;;;;;;;22.65;10.75;;;;;;;1.66;64.50;100252.13;5051954;28;20461;-59
2021/12/15 11:10:25;;;;;;;24.17;11.30;;;;;;;1.56;64.26;100219.94;5052649;28;20033;-56
2021/12/15 11:12:53;;;;;;;20.50;9.98;;;;;;;1.64;64.05;100238.13;5051683;28;20029;-57
2021/12/15 11:15:27;;;;;;;20.33;10.68;;;;;;;1.68;64.31;100255.59;5048334;28;20036;-57
2021/12/15 11:17:54;;;;;;;22.70;10.77;;;;;;;1.64;64.18;100249.56;5052203;28;20041;-57
2021/12/15 11:20:27;;;;;;;23.33;10.80;;;;;;;1.38;64.33;100205.66;5051886;28;20052;-58
2021/12/15 11:22:57;;;;;;;23.65;10.80;;;;;;;1.60;64.23;100240.06;5051984;28;20052;-60
2021/12/15 11:25:34;;;;;;;27.33;11.65;;;;;;;1.60;64.70;100244.47;5051390;28;20037;-60
2021/12/15 11:28:03;;;;;;;27.05;10.98;;;;;;;1.50;64.94;100244.81;5045163;28;20060;-58
2021/12/15 11:30:43;;;;;;;24.83;10.82;;;;;;;1.51;65.03;100251.81;5031811;28;20120;-59
2021/12/15 11:33:21;;;;;;;25.60;11.07;;;;;;;1.51;64.99;100246.53;5031589;28;20413;-55
2021/12/15 11:35:57;;;;;;;24.15;10.52;;;;;;;1.50;64.90;100250.09;5031741;28;20036;-56
2021/12/15 11:38:32;;;;;;;25.35;10.85;;;;;;;1.49;65.06;100248.34;5032633;28;20037;-56
2021/12/15 11:40:58;;;;;;;24.95;10.48;;;;;;;1.47;65.14;100237.00;5031221;28;20037;-59
2021/12/15 11:43:38;;;;;;;24.42;10.55;;;;;;;1.49;65.08;100245.72;5031503;28;20039;-57
2021/12/15 11:46:18;;;;;;;23.52;10.68;;;;;;;1.51;65.26;100245.66;5031670;28;20504;-60
2021/12/15 11:48:47;;;;;;;25.30;10.43;;;;;;;1.33;65.10;100224.31;5032369;28;20440;-60
2021/12/15 11:51:13;;;;;;;21.85;9.50;;;;;;;1.22;64.63;100203.59;5030195;28;20033;-54
2021/12/15 11:53:43;;;;;;;18.88;9.18;;;;;;;1.46;64.84;100240.56;5034104;28;20091;-53
2021/12/15 11:56:16;;;;;;;16.77;9.05;;;;;;;1.19;64.36;100192.28;5045212;28;20136;-56
2021/12/15 11:58:42;;;;;;;20.00;9.57;;;;;;;1.40;64.55;100252.19;5035521;28;20033;-58
2021/12/15 12:01:08;;;;;;;18.00;9.15;;;;;;;1.34;64.13;100246.25;5049654;28;20037;-53
2021/12/15 12:03:36;;;;;;;15.73;9.02;;;;;;;1.28;65.01;100247.34;5051273;28;20035;-56
2021/12/15 12:06:02;;;;;;;18.40;8.70;;;;;;;1.33;65.16;100250.69;5050153;28;20468;-60
2021/12/15 12:08:28;;;;;;;19.42;9.23;;;;;;;1.28;64.78;100244.69;5051587;28;20482;-58
2021/12/15 12:10:56;;;;;;;18.13;8.50;;;;;;;1.33;64.34;100255.97;5036872;28;20068;-60
2021/12/15 12:13:29;;;;;;;16.38;8.57;;;;;;;1.35;64.64;100254.13;5030114;28;20394;-60
2021/12/15 12:16:01;;;;;;;15.75;8.23;;;;;;;1.27;64.70;100240.34;5037716;28;20100;-57
2021/12/15 12:18:28;;;;;;;14.68;8.35;;;;;;;1.17;64.88;100239.78;5047781;28;20025;-57
2021/12/15 12:21:06;;;;;;;15.80;8.27;;;;;;;0.97;64.80;100209.72;5043927;28;20394;-55
2021/12/15 12:23:33;;;;;;;17.30;8.32;;;;;;;1.13;65.11;100248.72;5048505;28;20760;-56
2021/12/15 12:26:02;;;;;;;15.95;7.28;;;;;;;1.07;64.92;100244.53;5048862;28;20036;-58
2021/12/15 12:28:32;;;;;;;17.80;8.55;;;;;;;1.04;65.52;100256.97;5049267;28;20068;-57
2021/12/15 12:31:02;;;;;;;16.38;8.40;;;;;;;0.94;65.31;100236.16;5029944;28;20028;-57
2021/12/15 12:33:29;;;;;;;17.35;8.32;;;;;;;0.96;65.24;100257.22;5036092;28;20032;-56
2021/12/15 12:36:01;;;;;;;15.88;8.02;;;;;;;0.98;65.72;100260.66;5049496;28;20079;-55
2021/12/15 12:38:28;;;;;;;14.27;7.80;;;;;;;0.99;65.70;100257.13;5044605;28;20036;-57
2021/12/15 12:40:58;;;;;;;14.98;8.30;;;;;;;0.99;65.65;100258.00;5041042;28;20029;-56